Time;durP1;ratioP1;P1;durP2;ratioP2;P2;SDS_P1;SDS_P2;PMS_P1;PMS_P2;Temp;Humidity;BMP_temperature;BMP_pressure;BME280_temperature;BME280_humidity;BME280_pressure;Samples;Min_cycle;Max_cycle;Signal;HPM_P1;HPM_P2
2020/12/07 00:01:48;;;;;;;4.30;3.90;;;22.20;34.60;;;;;;5032934;28;20407;-60
2020/12/07 00:04:14;;;;;;;3.90;3.40;;;22.20;34.60;;;;;;5033917;28;20391;-60
2020/12/07 00:06:40;;;;;;;4.50;3.93;;;22.20;34.70;;;;;;5033497;28;20493;-59
2020/12/07 00:09:07;;;;;;;4.20;3.60;;;22.20;34.70;;;;;;5033806;28;20402;-60
2020/12/07 00:11:33;;;;;;;4.20;3.80;;;22.20;34.60;;;;;;5032342;28;20423;-60
2020/12/07 00:13:59;;;;;;;4.17;3.63;;;22.20;34.60;;;;;;5033722;28;20442;-60
2020/12/07 00:16:26;;;;;;;4.18;3.75;;;22.20;34.60;;;;;;5033306;28;20494;-59
2020/12/07 00:18:52;;;;;;;4.50;4.10;;;22.20;34.60;;;;;;5032089;28;20469;-59
2020/12/07 00:21:18;;;;;;;4.10;3.70;;;22.10;34.60;;;;;;5033621;28;20426;-60
2020/12/07 00:23:43;;;;;;;4.20;3.72;;;22.10;34.50;;;;;;5033559;28;20398;-59
2020/12/07 00:26:10;;;;;;;4.40;3.92;;;22.20;34.60;;;;;;5065093;28;20395;-59
2020/12/07 00:28:37;;;;;;;4.00;3.60;;;22.10;34.50;;;;;;5032679;28;20411;-60
2020/12/07 00:31:06;;;;;;;4.25;3.85;;;22.10;34.50;;;;;;5032503;28;20770;-59
2020/12/07 00:33:33;;;;;;;4.72;3.85;;;22.10;34.50;;;;;;5032647;28;20494;-59
2020/12/07 00:35:59;;;;;;;4.55;4.00;;;22.10;34.40;;;;;;5032893;28;20427;-59
2020/12/07 00:38:25;;;;;;;4.35;3.60;;;22.10;34.40;;;;;;5032263;28;20403;-59
2020/12/07 00:40:51;;;;;;;4.53;4.05;;;22.10;34.40;;;;;;5031312;28;20919;-59
2020/12/07 00:43:17;;;;;;;4.15;3.58;;;22.10;34.40;;;;;;5033679;28;20390;-59
2020/12/07 00:45:42;;;;;;;4.40;3.70;;;22.10;34.30;;;;;;5033071;28;20403;-59
2020/12/07 00:48:08;;;;;;;4.93;3.93;;;22.10;34.40;;;;;;5032716;28;20453;-59
2020/12/07 00:50:34;;;;;;;4.78;3.88;;;22.10;34.40;;;;;;5032425;28;20978;-59
2020/12/07 00:53:00;;;;;;;4.17;3.63;;;22.10;34.40;;;;;;5032684;28;20433;-59
2020/12/07 00:55:26;;;;;;;4.78;4.10;;;22.10;34.40;;;;;;5033010;28;20405;-60
2020/12/07 00:57:51;;;;;;;4.20;3.72;;;22.00;34.40;;;;;;5033058;28;20470;-60
2020/12/07 01:00:17;;;;;;;4.20;3.60;;;22.00;34.40;;;;;;5032736;28;20789;-60
2020/12/07 01:02:43;;;;;;;4.25;3.85;;;22.00;34.40;;;;;;5032673;28;20391;-60
2020/12/07 01:05:09;;;;;;;4.05;3.50;;;22.00;34.30;;;;;;5032010;28;20728;-59
2020/12/07 01:07:34;;;;;;;4.00;3.60;;;22.00;34.30;;;;;;5032352;28;20425;-59
2020/12/07 01:10:00;;;;;;;4.50;4.05;;;22.00;34.30;;;;;;5032134;28;20767;-59
2020/12/07 01:12:26;;;;;;;4.13;3.70;;;22.00;34.30;;;;;;5032651;28;20905;-60
2020/12/07 01:14:52;;;;;;;4.47;3.78;;;22.00;34.30;;;;;;5032320;28;20775;-60
2020/12/07 01:17:19;;;;;;;4.37;3.97;;;22.00;34.30;;;;;;5032652;28;20391;-59
2020/12/07 01:19:45;;;;;;;4.22;3.80;;;22.00;34.30;;;;;;5032534;28;20394;-59
2020/12/07 01:22:11;;;;;;;4.10;3.70;;;22.00;34.20;;;;;;5032489;28;20479;-59
2020/12/07 01:24:37;;;;;;;4.30;3.75;;;22.00;34.20;;;;;;5032130;28;20403;-59
2020/12/07 01:27:03;;;;;;;4.00;3.60;;;22.00;34.20;;;;;;5031991;28;20403;-59
2020/12/07 01:29:29;;;;;;;4.50;3.80;;;22.00;34.20;;;;;;5032382;28;20427;-59
2020/12/07 01:31:55;;;;;;;4.38;3.80;;;22.00;34.30;;;;;;5032265;28;20911;-60
2020/12/07 01:34:21;;;;;;;4.13;3.60;;;22.00;34.20;;;;;;5032306;28;20435;-59
2020/12/07 01:36:47;;;;;;;4.07;3.57;;;22.00;34.20;;;;;;5031721;28;20502;-60
2020/12/07 01:39:13;;;;;;;4.22;3.55;;;22.00;34.20;;;;;;5031111;28;20384;-59
2020/12/07 01:41:38;;;;;;;4.10;3.60;;;21.90;34.20;;;;;;5031570;28;20399;-59
2020/12/07 01:44:04;;;;;;;4.63;4.00;;;21.90;34.30;;;;;;5032280;28;20440;-59
2020/12/07 01:46:30;;;;;;;4.43;3.80;;;21.90;34.20;;;;;;5031691;28;20441;-59
2020/12/07 01:48:56;;;;;;;4.18;3.78;;;21.90;34.20;;;;;;5031655;28;20406;-59
2020/12/07 01:51:23;;;;;;;4.60;3.83;;;21.90;34.20;;;;;;5031025;28;20426;-59
2020/12/07 01:53:49;;;;;;;4.30;3.60;;;21.90;34.20;;;;;;5032117;28;20402;-59
2020/12/07 01:56:28;;;;;;;4.00;3.60;;;21.90;34.20;;;;;;5031956;28;20426;-59
2020/12/07 01:58:56;;;;;;;4.43;3.70;;;21.90;34.10;;;;;;5031326;28;20387;-60
2020/12/07 02:01:22;;;;;;;4.88;4.05;;;21.90;34.10;;;;;;5031358;28;20473;-59
2020/12/07 02:03:48;;;;;;;4.37;3.63;;;21.90;34.10;;;;;;5031940;28;20474;-59
2020/12/07 02:06:13;;;;;;;4.25;3.85;;;21.90;34.00;;;;;;5031610;28;20399;-60
2020/12/07 02:08:39;;;;;;;4.20;3.63;;;21.90;34.00;;;;;;5030841;28;20407;-60
2020/12/07 02:11:05;;;;;;;4.10;3.58;;;21.90;34.10;;;;;;5031123;28;20421;-59
2020/12/07 02:13:30;;;;;;;4.00;3.53;;;21.90;34.10;;;;;;5031736;28;20751;-59
2020/12/07 02:15:56;;;;;;;3.83;3.42;;;21.90;34.00;;;;;;5031541;28;20918;-59
2020/12/07 02:18:22;;;;;;;3.77;3.37;;;21.90;34.10;;;;;;5030876;28;20399;-59
2020/12/07 02:20:48;;;;;;;4.15;3.65;;;21.90;34.10;;;;;;5030681;28;20399;-60
2020/12/07 02:23:15;;;;;;;3.65;3.30;;;21.90;34.10;;;;;;5031119;28;20403;-59
2020/12/07 02:25:41;;;;;;;4.18;3.67;;;21.90;34.10;;;;;;5030678;28;20411;-59
2020/12/07 02:28:06;;;;;;;4.00;3.60;;;21.80;34.00;;;;;;5030933;28;20442;-59
2020/12/07 02:30:32;;;;;;;4.38;3.67;;;21.80;34.10;;;;;;5030460;28;20506;-59
2020/12/07 02:32:58;;;;;;;4.33;3.83;;;21.80;34.10;;;;;;5029318;28;20391;-59
2020/12/07 02:35:23;;;;;;;3.70;3.30;;;21.90;34.10;;;;;;5031078;28;20489;-59
2020/12/07 02:37:49;;;;;;;4.03;3.58;;;21.90;34.10;;;;;;5031009;28;20494;-59
2020/12/07 02:40:16;;;;;;;4.50;3.70;;;21.80;34.00;;;;;;5031253;28;20387;-59
2020/12/07 02:42:42;;;;;;;3.90;3.50;;;21.90;34.10;;;;;;5031347;28;20878;-59
2020/12/07 02:45:13;;;;;;;4.13;3.58;;;21.80;34.00;;;;;;5030736;28;20392;-59
2020/12/07 02:47:40;;;;;;;4.13;3.72;;;21.80;34.10;;;;;;5031206;28;20391;-59
2020/12/07 02:50:07;;;;;;;4.10;3.70;;;21.80;34.00;;;;;;5031058;28;20476;-59
2020/12/07 02:52:33;;;;;;;3.90;3.38;;;21.80;34.00;;;;;;5031063;28;20402;-59
2020/12/07 02:55:06;;;;;;;4.18;3.60;;;21.80;34.00;;;;;;5030701;28;20387;-59
2020/12/07 02:57:32;;;;;;;4.13;3.53;;;21.80;34.00;;;;;;5031153;28;20860;-59
2020/12/07 02:59:57;;;;;;;4.03;3.38;;;21.80;34.00;;;;;;5030797;28;20924;-59
2020/12/07 03:02:23;;;;;;;3.85;3.33;;;21.80;34.00;;;;;;5011851;28;20436;-59
2020/12/07 03:04:49;;;;;;;3.77;3.37;;;21.80;34.00;;;;;;5033560;28;20395;-59
2020/12/07 03:07:14;;;;;;;4.10;3.38;;;21.80;34.00;;;;;;5034891;28;20751;-59
2020/12/07 03:09:40;;;;;;;4.20;3.60;;;21.80;34.00;;;;;;5035049;28;20806;-59
2020/12/07 03:12:07;;;;;;;3.83;3.38;;;21.80;34.00;;;;;;5035025;28;21124;-59
2020/12/07 03:14:33;;;;;;;3.83;3.30;;;21.80;34.00;;;;;;5035031;28;20391;-59
2020/12/07 03:16:59;;;;;;;3.72;3.33;;;21.80;34.00;;;;;;5034348;28;20479;-59
2020/12/07 03:19:25;;;;;;;3.60;3.30;;;21.70;34.00;;;;;;5034816;28;20950;-59
2020/12/07 03:21:50;;;;;;;3.83;3.35;;;21.80;34.00;;;;;;5034667;28;20413;-59
2020/12/07 03:24:16;;;;;;;3.97;3.50;;;21.80;34.00;;;;;;5034870;28;20398;-59
2020/12/07 03:26:42;;;;;;;4.25;3.60;;;21.80;33.90;;;;;;5034861;28;20883;-59
2020/12/07 03:29:08;;;;;;;4.20;3.30;;;21.80;33.90;;;;;;5034087;28;20407;-59
2020/12/07 03:31:35;;;;;;;3.83;3.25;;;21.80;33.90;;;;;;5034124;28;20517;-59
2020/12/07 03:34:01;;;;;;;3.72;3.33;;;21.80;33.90;;;;;;5034701;28;20383;-59
2020/12/07 03:36:27;;;;;;;3.90;3.38;;;21.80;33.90;;;;;;5034518;28;20427;-59
2020/12/07 03:38:54;;;;;;;3.85;3.33;;;21.80;33.90;;;;;;5034004;28;20422;-60
2020/12/07 03:41:20;;;;;;;4.07;3.53;;;21.70;33.90;;;;;;5034351;28;20399;-59
2020/12/07 03:43:46;;;;;;;3.77;3.47;;;21.70;33.90;;;;;;5034542;28;20410;-59
2020/12/07 03:46:11;;;;;;;3.67;3.13;;;21.70;33.90;;;;;;5034456;28;20497;-60
2020/12/07 03:48:37;;;;;;;3.70;3.10;;;21.70;33.90;;;;;;5034421;28;20465;-59
2020/12/07 03:51:03;;;;;;;3.90;3.50;;;21.70;33.90;;;;;;5032544;28;20423;-60
2020/12/07 03:53:37;;;;;;;3.92;3.45;;;21.70;33.90;;;;;;5034155;28;20390;-59
2020/12/07 03:56:05;;;;;;;4.03;3.50;;;21.70;33.90;;;;;;5034209;28;20754;-59
2020/12/07 03:58:30;;;;;;;3.80;3.40;;;21.70;33.80;;;;;;5033876;28;20411;-59
2020/12/07 04:00:56;;;;;;;3.85;3.38;;;21.70;33.80;;;;;;5033561;28;20460;-59
2020/12/07 04:03:23;;;;;;;4.00;3.25;;;21.70;33.90;;;;;;5034162;28;20380;-59
2020/12/07 04:05:59;;;;;;;3.67;3.28;;;21.70;33.80;;;;;;5033785;28;20399;-59
2020/12/07 04:08:25;;;;;;;3.90;3.47;;;21.70;33.90;;;;;;5033926;28;20395;-59
2020/12/07 04:10:50;;;;;;;3.92;3.30;;;21.70;33.90;;;;;;5033448;28;20502;-60
2020/12/07 04:13:16;;;;;;;3.67;3.20;;;21.70;33.80;;;;;;5033796;28;20446;-59
2020/12/07 04:15:41;;;;;;;3.75;3.30;;;21.70;33.80;;;;;;5032884;28;20970;-59
2020/12/07 04:18:07;;;;;;;4.00;3.33;;;21.70;33.90;;;;;;5033905;28;20384;-59
2020/12/07 04:20:33;;;;;;;3.63;3.25;;;21.70;33.90;;;;;;5033839;28;20427;-59
2020/12/07 04:22:58;;;;;;;3.83;3.40;;;21.70;33.90;;;;;;5033332;28;20436;-59
2020/12/07 04:25:24;;;;;;;3.88;3.30;;;21.70;33.90;;;;;;5033627;28;20430;-59
2020/12/07 04:27:50;;;;;;;3.80;3.40;;;21.70;33.90;;;;;;5033314;28;20496;-59
2020/12/07 04:30:16;;;;;;;4.00;3.60;;;21.60;33.80;;;;;;5033103;28;20427;-59
2020/12/07 04:32:41;;;;;;;3.72;3.15;;;21.60;33.80;;;;;;5033522;28;20390;-59
2020/12/07 04:35:07;;;;;;;3.65;3.30;;;21.70;33.90;;;;;;5033114;28;20822;-59
2020/12/07 04:37:33;;;;;;;3.78;3.13;;;21.60;33.80;;;;;;5033465;28;20919;-59
2020/12/07 04:39:58;;;;;;;3.60;3.17;;;21.60;33.80;;;;;;5033223;28;20422;-59
2020/12/07 04:42:25;;;;;;;3.40;3.08;;;21.60;33.80;;;;;;5033419;28;20390;-59
2020/12/07 04:44:52;;;;;;;3.70;3.30;;;21.70;33.80;;;;;;5033364;28;20399;-60
2020/12/07 04:47:19;;;;;;;3.73;3.20;;;21.60;33.80;;;;;;5033007;28;20383;-59
2020/12/07 04:49:46;;;;;;;4.05;3.20;;;21.60;33.80;;;;;;5033294;28;20871;-59
2020/12/07 04:52:14;;;;;;;3.90;3.28;;;21.60;33.70;;;;;;5033302;28;20399;-59
2020/12/07 04:54:46;;;;;;;3.63;3.20;;;21.60;33.70;;;;;;5032830;28;20909;-59
2020/12/07 04:57:14;;;;;;;3.35;3.00;;;21.60;33.70;;;;;;5032672;28;20490;-59
2020/12/07 04:59:41;;;;;;;3.20;2.90;;;21.60;33.70;;;;;;5032564;28;20403;-59
2020/12/07 05:02:07;;;;;;;3.50;3.20;;;21.60;33.70;;;;;;5033053;28;20394;-59
2020/12/07 05:04:34;;;;;;;3.67;3.28;;;21.60;33.70;;;;;;5032866;28;20474;-59
2020/12/07 05:07:04;;;;;;;3.60;3.22;;;21.60;33.70;;;;;;5032677;28;20387;-59
2020/12/07 05:09:31;;;;;;;4.10;3.33;;;21.60;33.50;;;;;;4996392;28;20743;-59
2020/12/07 05:12:00;;;;;;;3.60;3.10;;;21.70;33.80;;;;;;5033767;28;20423;-59
2020/12/07 05:14:26;;;;;;;4.05;3.53;;;21.70;33.60;;;;;;5032730;28;20395;-59
2020/12/07 05:16:51;;;;;;;4.40;3.70;;;21.70;33.90;;;;;;5032552;28;20449;-59
2020/12/07 05:19:21;;;;;;;4.25;3.60;;;21.70;34.00;;;;;;5032157;28;20458;-59
2020/12/07 05:21:47;;;;;;;3.67;3.10;;;21.80;34.10;;;;;;5030250;28;20465;-59
2020/12/07 05:24:14;;;;;;;4.40;3.65;;;21.80;34.50;;;;;;5032393;28;20874;-59
2020/12/07 05:26:41;;;;;;;5.05;3.20;;;21.80;34.60;;;;;;5031575;28;20850;-59
2020/12/07 05:29:10;;;;;;;3.95;3.17;;;21.80;34.40;;;;;;5031240;28;20411;-59
2020/12/07 05:31:36;;;;;;;3.83;3.30;;;21.90;34.30;;;;;;5031760;28;20502;-68
2020/12/07 05:34:05;;;;;;;4.55;3.08;;;21.90;34.30;;;;;;5032334;28;20470;-61
2020/12/07 05:36:31;;;;;;;4.50;3.10;;;21.90;34.40;;;;;;5029149;28;20398;-59
2020/12/07 05:38:57;;;;;;;3.47;2.80;;;21.80;35.30;;;;;;5030986;28;20394;-60
2020/12/07 05:41:25;;;;;;;5.47;3.13;;;21.80;35.50;;;;;;5031539;28;20399;-59
2020/12/07 05:43:52;;;;;;;6.15;3.20;;;21.90;36.20;;;;;;5031838;28;20478;-59
2020/12/07 05:46:18;;;;;;;4.93;3.42;;;22.00;36.90;;;;;;5031028;28;20403;-59
2020/12/07 05:48:45;;;;;;;5.45;3.00;;;22.20;36.90;;;;;;5031296;28;20395;-59
2020/12/07 05:51:13;;;;;;;6.47;3.33;;;22.20;36.80;;;;;;5028090;28;20935;-58
2020/12/07 05:53:40;;;;;;;5.63;3.30;;;22.30;36.50;;;;;;5030529;28;20430;-59
2020/12/07 05:56:08;;;;;;;4.20;3.20;;;22.30;36.50;;;;;;5030616;28;20845;-60
2020/12/07 05:58:59;;;;;;;4.75;3.47;;;22.30;36.60;;;;;;5028817;28;20499;-59
2020/12/07 06:01:26;;;;;;;5.65;3.03;;;22.40;38.00;;;;;;5030809;28;20434;-60
2020/12/07 06:03:53;;;;;;;4.20;2.50;;;22.40;37.30;;;;;;5031404;28;20387;-59
2020/12/07 06:06:35;;;;;;;4.95;3.03;;;22.30;37.50;;;;;;5031206;28;20398;-59
2020/12/07 06:09:20;;;;;;;7.40;3.10;;;22.30;37.40;;;;;;5030336;28;20391;-60
2020/12/07 06:11:56;;;;;;;6.38;2.90;;;22.30;37.50;;;;;;5030916;28;20419;-59
2020/12/07 06:14:22;;;;;;;6.90;3.13;;;22.40;36.80;;;;;;5029500;28;20795;-58
2020/12/07 06:16:50;;;;;;;7.77;3.17;;;22.40;37.70;;;;;;5030769;28;20399;-59
2020/12/07 06:19:17;;;;;;;4.47;2.97;;;22.30;37.70;;;;;;5030625;28;20399;-59
2020/12/07 06:21:55;;;;;;;5.18;3.10;;;22.40;37.80;;;;;;5030632;28;20399;-59
2020/12/07 06:24:21;;;;;;;4.22;3.05;;;22.40;37.40;;;;;;5029273;28;20391;-59
2020/12/07 06:27:10;;;;;;;6.22;3.30;;;22.40;37.20;;;;;;5030119;28;20449;-59
2020/12/07 06:29:37;;;;;;;4.72;2.97;;;22.40;37.00;;;;;;5029597;28;20498;-59
2020/12/07 06:32:03;;;;;;;5.20;2.80;;;22.40;36.90;;;;;;5031282;28;21227;-60
2020/12/07 06:34:51;;;;;;;4.30;3.00;;;22.40;36.90;;;;;;5030255;28;20486;-59
2020/12/07 06:37:17;;;;;;;4.20;2.90;;;22.30;36.60;;;;;;5030516;28;20425;-59
2020/12/07 06:39:47;;;;;;;13.88;3.30;;;22.30;36.40;;;;;;5031043;28;20431;-59
2020/12/07 06:42:15;;;;;;;6.55;3.17;;;22.20;35.80;;;;;;5030850;28;20394;-65
2020/12/07 06:44:50;;;;;;;8.70;3.35;;;22.20;35.70;;;;;;5031016;28;20878;-59
2020/12/07 06:47:20;;;;;;;8.20;3.40;;;22.20;35.80;;;;;;5030700;28;20778;-60
2020/12/07 06:49:54;;;;;;;6.43;3.25;;;22.10;35.30;;;;;;5031135;28;20399;-60
2020/12/07 06:52:26;;;;;;;7.97;3.13;;;22.10;35.30;;;;;;5031217;28;20751;-60
2020/12/07 06:55:09;;;;;;;5.63;3.25;;;22.00;35.20;;;;;;5031171;28;20397;-60
2020/12/07 06:57:42;;;;;;;6.20;3.30;;;22.00;35.20;;;;;;5030607;28;20410;-59
2020/12/07 07:00:11;;;;;;;4.82;2.95;;;22.00;35.00;;;;;;5030523;28;20388;-60
2020/12/07 07:02:45;;;;;;;5.22;3.40;;;22.00;34.90;;;;;;5029260;28;20811;-59
2020/12/07 07:05:12;;;;;;;5.82;2.85;;;22.00;34.80;;;;;;5028711;28;20391;-60
2020/12/07 07:07:39;;;;;;;6.13;3.10;;;22.00;34.70;;;;;;5029195;28;20623;-60
2020/12/07 07:10:08;;;;;;;4.93;3.28;;;21.90;34.60;;;;;;5028811;28;20910;-59
2020/12/07 07:12:35;;;;;;;4.40;3.10;;;21.90;34.50;;;;;;5028680;28;20478;-60
2020/12/07 07:15:01;;;;;;;5.07;3.38;;;21.90;34.40;;;;;;5028571;28;20391;-60
2020/12/07 07:17:32;;;;;;;4.80;3.00;;;21.90;34.40;;;;;;5030569;28;20399;-60
2020/12/07 07:19:59;;;;;;;3.95;3.10;;;21.90;34.40;;;;;;5045991;28;20437;-60
2020/12/07 07:22:27;;;;;;;5.20;3.55;;;21.80;34.30;;;;;;5029915;28;20403;-60
2020/12/07 07:25:05;;;;;;;3.63;3.10;;;21.90;34.40;;;;;;5030635;28;20395;-60
2020/12/07 07:30:17;;;;;;;3.80;3.00;;;21.90;34.30;;;;;;5029750;28;20430;-59
2020/12/07 07:32:44;;;;;;;4.50;3.00;;;21.80;34.20;;;;;;5029510;28;20894;-60
2020/12/07 07:35:10;;;;;;;3.45;2.95;;;21.90;34.20;;;;;;5030408;28;20383;-60
2020/12/07 07:37:37;;;;;;;3.63;2.85;;;21.80;34.20;;;;;;5030728;28;20411;-59
2020/12/07 07:40:09;;;;;;;6.47;3.13;;;21.90;34.20;;;;;;5030339;28;20398;-60
2020/12/07 07:42:56;;;;;;;7.10;3.05;;;21.90;34.80;;;;;;5030529;28;20495;-60
2020/12/07 07:45:24;;;;;;;5.57;3.00;;;21.80;34.70;;;;;;5030139;28;20426;-60
2020/12/07 07:48:03;;;;;;;9.50;3.90;;;21.90;34.70;;;;;;5030527;28;20403;-59
2020/12/07 08:11:22;;;;;;;7.40;3.70;;;22.40;37.20;;;;;;5032889;28;20390;-60
2020/12/07 08:15:57;;;;;;;6.82;3.60;;;22.60;37.00;;;;;;5034091;28;20433;-59
2020/12/07 08:18:33;;;;;;;6.30;3.58;;;22.70;37.00;;;;;;5033603;28;20430;-59
2020/12/07 08:21:01;;;;;;;8.75;3.40;;;22.70;37.20;;;;;;5033204;28;20406;-59
2020/12/07 08:23:34;;;;;;;10.95;3.70;;;22.70;37.20;;;;;;5033345;28;20490;-60
2020/12/07 08:26:01;;;;;;;10.27;3.95;;;22.70;36.80;;;;;;5032739;28;20398;-61
2020/12/07 08:28:32;;;;;;;9.95;3.85;;;22.70;37.00;;;;;;5032856;28;20502;-60
2020/12/07 08:30:59;;;;;;;8.88;3.38;;;22.70;36.80;;;;;;5032402;28;20947;-61
2020/12/07 08:33:24;;;;;;;7.93;3.30;;;22.70;36.90;;;;;;5033136;28;20392;-61
2020/12/07 08:35:50;;;;;;;8.73;3.70;;;22.70;36.40;;;;;;5032023;28;20763;-59
2020/12/07 08:38:34;;;;;;;12.03;3.50;;;22.70;36.40;;;;;;5032914;28;20620;-58
2020/12/07 08:41:07;;;;;;;10.00;3.60;;;22.70;37.30;;;;;;5033271;28;20444;-59
2020/12/07 08:43:34;;;;;;;9.30;3.53;;;22.60;37.40;;;;;;5048641;28;20400;-59
2020/12/07 08:45:59;;;;;;;10.10;3.10;;;22.60;37.10;;;;;;5033008;28;20442;-59
2020/12/07 08:48:25;;;;;;;10.27;3.47;;;22.60;38.00;;;;;;5033342;28;20480;-59
2020/12/07 08:50:53;;;;;;;10.83;3.50;;;22.60;37.20;;;;;;5033007;28;20426;-59
2020/12/07 08:53:19;;;;;;;12.48;3.10;;;22.60;37.10;;;;;;5032654;28;20460;-59
2020/12/07 08:55:45;;;;;;;7.35;2.60;;;22.70;37.80;;;;;;5033254;28;20942;-59
2020/12/07 08:58:12;;;;;;;5.57;2.57;;;22.70;36.60;;;;;;5032840;28;20732;-59
2020/12/07 09:00:37;;;;;;;10.07;3.00;;;22.70;36.30;;;;;;5032525;28;20542;-58
2020/12/07 09:03:03;;;;;;;8.50;3.23;;;22.80;36.60;;;;;;5033018;28;20474;-59
2020/12/07 09:05:28;;;;;;;10.63;3.00;;;22.70;37.20;;;;;;5031619;28;20406;-58
2020/12/07 09:07:54;;;;;;;8.87;3.30;;;22.70;37.30;;;;;;5033149;28;20876;-58
2020/12/07 09:10:20;;;;;;;8.00;3.20;;;22.80;37.30;;;;;;5032013;28;20415;-59
2020/12/07 09:12:45;;;;;;;12.98;3.50;;;22.90;37.60;;;;;;5032286;28;20403;-59
2020/12/07 09:15:11;;;;;;;12.97;3.70;;;22.90;36.90;;;;;;5046040;28;20481;-59
2020/12/07 09:17:36;;;;;;;12.85;3.50;;;22.90;36.60;;;;;;5048164;28;20495;-59
2020/12/07 09:20:03;;;;;;;14.43;3.53;;;23.00;36.60;;;;;;5032357;28;20444;-59
2020/12/07 09:22:29;;;;;;;16.83;4.03;;;23.00;36.10;;;;;;5032442;28;20449;-58
2020/12/07 09:24:54;;;;;;;11.63;3.40;;;23.00;36.00;;;;;;5032388;28;20387;-59
2020/12/07 09:27:20;;;;;;;9.47;3.70;;;23.00;35.60;;;;;;5031772;28;20391;-59
2020/12/07 09:29:46;;;;;;;14.05;3.58;;;23.00;35.70;;;;;;5032411;28;20810;-58
2020/12/07 09:32:11;;;;;;;12.77;3.60;;;22.90;35.20;;;;;;5031397;28;20473;-59
2020/12/07 09:34:38;;;;;;;10.70;3.50;;;22.90;35.20;;;;;;5032274;28;20384;-59
2020/12/07 09:37:03;;;;;;;11.00;3.67;;;23.00;34.70;;;;;;5047763;28;20763;-59
2020/12/07 09:39:29;;;;;;;11.73;3.73;;;23.00;34.70;;;;;;5032004;28;20410;-58
2020/12/07 09:41:56;;;;;;;8.90;3.58;;;22.90;34.60;;;;;;5031169;28;20388;-59
2020/12/07 09:44:22;;;;;;;9.50;3.25;;;22.90;34.70;;;;;;5030326;28;20454;-59
2020/12/07 09:46:48;;;;;;;9.35;3.30;;;22.90;34.60;;;;;;5030331;28;20403;-59
2020/12/07 09:49:14;;;;;;;9.70;3.70;;;22.90;34.80;;;;;;5029695;28;20440;-59
2020/12/07 09:51:39;;;;;;;8.98;3.30;;;22.80;34.60;;;;;;5030039;28;20415;-59
2020/12/07 09:54:05;;;;;;;10.07;3.40;;;22.90;34.50;;;;;;5030161;28;20406;-59
2020/12/07 09:56:31;;;;;;;9.63;3.30;;;23.00;34.40;;;;;;5030428;28;20426;-59
2020/12/07 09:58:57;;;;;;;8.00;3.15;;;23.00;34.30;;;;;;5032082;28;20383;-58
2020/12/07 10:01:23;;;;;;;8.52;3.13;;;23.10;34.20;;;;;;5031357;28;20759;-58
2020/12/07 10:03:49;;;;;;;7.47;3.00;;;23.00;34.20;;;;;;5032023;28;20476;-59
2020/12/07 10:06:14;;;;;;;8.57;3.20;;;23.10;34.10;;;;;;5031866;28;20399;-59
2020/12/07 10:08:40;;;;;;;6.73;2.80;;;23.10;34.10;;;;;;5031958;28;20391;-59
2020/12/07 10:11:06;;;;;;;11.75;3.60;;;23.10;33.70;;;;;;5031854;28;20908;-59
2020/12/07 10:13:32;;;;;;;9.70;3.50;;;23.00;33.80;;;;;;5030667;28;21013;-59
2020/12/07 10:15:58;;;;;;;11.93;3.30;;;23.00;33.70;;;;;;5031755;28;20414;-59
2020/12/07 10:18:23;;;;;;;10.73;3.13;;;22.90;34.40;;;;;;5031683;28;20395;-58
2020/12/07 10:20:49;;;;;;;12.83;3.60;;;22.90;34.00;;;;;;5031788;28;20807;-58
2020/12/07 10:23:16;;;;;;;13.02;3.50;;;22.90;33.70;;;;;;5031181;28;20397;-59
2020/12/07 10:25:50;;;;;;;20.73;3.72;;;23.00;33.60;;;;;;5031482;28;20957;-59
2020/12/07 10:28:16;;;;;;;18.85;3.45;;;23.00;33.40;;;;;;5031614;28;20922;-59
2020/12/07 10:30:41;;;;;;;13.60;2.90;;;23.00;33.10;;;;;;5031412;28;20510;-59
2020/12/07 10:33:08;;;;;;;12.20;3.20;;;23.10;33.00;;;;;;5031147;28;20549;-59
2020/12/07 10:35:34;;;;;;;10.80;2.80;;;23.20;32.80;;;;;;5031222;28;20929;-59
2020/12/07 10:38:00;;;;;;;9.35;2.72;;;23.20;32.70;;;;;;5031567;28;20383;-58
2020/12/07 10:40:25;;;;;;;10.63;3.03;;;23.20;32.60;;;;;;5031477;28;20406;-58
2020/12/07 10:42:51;;;;;;;9.07;3.00;;;23.20;32.60;;;;;;5031551;28;20391;-58
2020/12/07 10:45:17;;;;;;;11.57;3.00;;;23.30;33.10;;;;;;5030740;28;20396;-59
2020/12/07 10:47:42;;;;;;;7.60;2.70;;;23.40;33.00;;;;;;5031447;28;20441;-58
2020/12/07 10:50:08;;;;;;;13.00;3.42;;;23.40;32.70;;;;;;5031318;28;20818;-58
2020/12/07 10:52:33;;;;;;;12.97;3.40;;;23.40;33.40;;;;;;5030852;28;20406;-58
2020/12/07 10:54:59;;;;;;;10.70;3.60;;;23.40;33.70;;;;;;5031141;28;20391;-58
2020/12/07 10:57:25;;;;;;;14.70;3.63;;;23.40;33.60;;;;;;5030876;28;20387;-59
2020/12/07 10:59:50;;;;;;;16.10;3.47;;;23.40;33.70;;;;;;5024540;28;20407;-59
2020/12/07 11:02:18;;;;;;;12.98;3.63;;;23.50;34.60;;;;;;5031038;28;20744;-59
2020/12/07 11:04:44;;;;;;;15.43;3.75;;;23.50;35.30;;;;;;5031164;28;20395;-58
2020/12/07 11:07:14;;;;;;;13.05;3.53;;;23.50;35.80;;;;;;5031285;28;20449;-59
2020/12/07 11:09:40;;;;;;;13.25;3.80;;;23.60;36.20;;;;;;5030884;28;20449;-59
2020/12/07 11:12:10;;;;;;;13.18;3.92;;;23.60;36.80;;;;;;5030899;28;20534;-59
2020/12/07 11:14:35;;;;;;;13.93;3.65;;;23.70;37.10;;;;;;5029585;28;20393;-59
2020/12/07 11:17:01;;;;;;;14.40;3.80;;;23.70;36.60;;;;;;5030275;28;20750;-59
2020/12/07 11:19:26;;;;;;;10.95;4.68;;;23.80;36.80;;;;;;5030023;28;20387;-59
2020/12/07 11:21:52;;;;;;;12.93;4.17;;;23.80;36.60;;;;;;5030988;28;20426;-59
2020/12/07 11:24:18;;;;;;;13.13;5.40;;;23.80;36.10;;;;;;5031709;28;20409;-59
2020/12/07 11:26:43;;;;;;;9.80;4.60;;;24.00;35.20;;;;;;5034958;28;20391;-58
2020/12/07 11:29:09;;;;;;;7.93;3.80;;;24.20;34.30;;;;;;5034586;28;20438;-59
2020/12/07 11:31:34;;;;;;;8.10;3.40;;;24.20;34.00;;;;;;5034156;28;20501;-58
2020/12/07 11:34:00;;;;;;;11.07;3.67;;;24.30;33.80;;;;;;5034768;28;20421;-58
2020/12/07 11:36:26;;;;;;;7.55;3.30;;;24.30;33.60;;;;;;5034574;28;20431;-58
2020/12/07 11:46:29;;;;;;;10.10;3.27;;;24.00;34.00;;;;;;5034603;28;20481;-58
2020/12/07 11:48:55;;;;;;;10.50;3.20;;;23.90;34.30;;;;;;5049765;28;20387;-59
2020/12/07 11:51:27;;;;;;;11.23;3.30;;;23.90;34.40;;;;;;5033546;28;20472;-58
2020/12/07 11:53:55;;;;;;;9.27;3.45;;;23.80;34.80;;;;;;5033880;28;20386;-58
2020/12/07 11:56:30;;;;;;;10.00;3.30;;;23.80;35.00;;;;;;5034348;28;20409;-59
2020/12/07 11:58:56;;;;;;;8.00;2.90;;;23.70;35.20;;;;;;5034395;28;20468;-59
2020/12/07 12:01:22;;;;;;;8.88;3.08;;;23.60;37.20;;;;;;5033375;28;20387;-59
2020/12/07 12:03:48;;;;;;;10.48;2.90;;;23.60;36.60;;;;;;5032973;28;20392;-59
2020/12/07 12:06:27;;;;;;;11.23;2.80;;;23.60;36.20;;;;;;5034069;28;20437;-58
2020/12/07 12:08:54;;;;;;;8.15;2.70;;;23.50;36.50;;;;;;5034048;28;20387;-59
2020/12/07 12:11:20;;;;;;;10.60;2.80;;;23.50;35.90;;;;;;5033608;28;20465;-59
2020/12/07 12:13:47;;;;;;;16.77;3.10;;;23.50;36.10;;;;;;5033997;28;20425;-59
2020/12/07 12:16:13;;;;;;;11.60;2.88;;;23.50;36.70;;;;;;5033807;28;20482;-59
2020/12/07 12:18:40;;;;;;;11.73;2.92;;;23.60;39.10;;;;;;5032747;28;20895;-58
2020/12/07 12:21:05;;;;;;;13.00;3.45;;;23.60;37.50;;;;;;5033774;28;20395;-59
2020/12/07 12:23:31;;;;;;;14.57;3.53;;;23.70;37.80;;;;;;5033496;28;20744;-59
2020/12/07 12:25:57;;;;;;;15.80;3.10;;;23.70;41.40;;;;;;5033772;28;20395;-59
2020/12/07 12:28:22;;;;;;;11.37;3.10;;;23.70;40.00;;;;;;5033871;28;20452;-59
2020/12/07 12:30:48;;;;;;;10.82;3.00;;;23.90;42.50;;;;;;5033590;28;20502;-59
2020/12/07 12:33:14;;;;;;;9.13;2.63;;;23.90;42.10;;;;;;5033570;28;20395;-59
2020/12/07 12:35:39;;;;;;;11.88;2.90;;;24.00;41.60;;;;;;5033043;28;20383;-58
2020/12/07 12:38:05;;;;;;;11.27;3.17;;;24.00;40.20;;;;;;5033527;28;20762;-59
2020/12/07 12:40:30;;;;;;;14.50;3.15;;;23.90;39.50;;;;;;5033402;28;20465;-58
2020/12/07 12:42:56;;;;;;;13.68;3.10;;;23.90;40.30;;;;;;5031777;28;20475;-59
2020/12/07 12:45:22;;;;;;;12.03;3.10;;;23.90;40.20;;;;;;5032250;28;20743;-59
2020/12/07 12:47:47;;;;;;;12.88;2.70;;;23.90;39.70;;;;;;5033024;28;20390;-59
2020/12/07 12:50:13;;;;;;;8.97;2.60;;;23.90;39.60;;;;;;5032940;28;20394;-59
2020/12/07 12:52:39;;;;;;;8.15;3.03;;;23.80;39.10;;;;;;5033052;28;20394;-59
2020/12/07 12:55:05;;;;;;;11.10;2.80;;;23.80;39.00;;;;;;5032544;28;20395;-59
2020/12/07 12:57:30;;;;;;;8.25;2.67;;;23.80;38.30;;;;;;5031547;28;20387;-59
2020/12/07 12:59:56;;;;;;;8.73;2.53;;;23.80;38.00;;;;;;5031803;28;20473;-59
2020/12/07 13:02:22;;;;;;;5.90;2.30;;;23.80;37.30;;;;;;5032828;28;20728;-69
2020/12/07 13:04:47;;;;;;;7.10;2.40;;;23.70;37.20;;;;;;5032036;28;20441;-69
2020/12/07 13:07:13;;;;;;;6.18;2.20;;;23.80;37.10;;;;;;5046954;28;20395;-69
2020/12/07 13:09:38;;;;;;;5.60;2.30;;;23.70;37.10;;;;;;5032321;28;20395;-68
2020/12/07 13:12:04;;;;;;;5.33;2.20;;;23.70;37.10;;;;;;5032740;28;20423;-69
2020/12/07 13:14:30;;;;;;;5.05;1.95;;;23.70;36.90;;;;;;5032663;28;20461;-59
2020/12/07 13:17:04;;;;;;;4.97;2.10;;;23.70;36.90;;;;;;5032919;28;20863;-59
2020/12/07 13:19:30;;;;;;;4.15;1.83;;;23.70;36.80;;;;;;5031271;28;20403;-60